sensor_id;sensor_type;location;lat;lon;timestamp;P1;durP1;ratioP1;P2;durP2;ratioP2
76152;SDS011;64897;50.816;4.422;2023-04-25T00:00:39;7.70;;;2.88;;
76152;SDS011;64897;50.816;4.422;2023-04-25T00:03:26;19.42;;;4.10;;
76152;SDS011;64897;50.816;4.422;2023-04-25T00:06:15;11.20;;;4.75;;
76152;SDS011;64897;50.816;4.422;2023-04-25T00:09:03;9.07;;;3.70;;
76152;SDS011;64897;50.816;4.422;2023-04-25T00:11:52;7.97;;;3.13;;
76152;SDS011;64897;50.816;4.422;2023-04-25T00:14:39;13.05;;;3.40;;
76152;SDS011;64897;50.816;4.422;2023-04-25T00:17:26;11.13;;;3.78;;
76152;SDS011;64897;50.816;4.422;2023-04-25T00:20:13;10.60;;;3.53;;
76152;SDS011;64897;50.816;4.422;2023-04-25T00:23:02;9.93;;;4.28;;
76152;SDS011;64897;50.816;4.422;2023-04-25T00:25:49;11.30;;;3.60;;
76152;SDS011;64897;50.816;4.422;2023-04-25T00:28:36;10.18;;;3.63;;
76152;SDS011;64897;50.816;4.422;2023-04-25T00:31:23;6.75;;;3.22;;
76152;SDS011;64897;50.816;4.422;2023-04-25T00:34:10;9.23;;;3.40;;
76152;SDS011;64897;50.816;4.422;2023-04-25T00:36:57;11.35;;;3.80;;
76152;SDS011;64897;50.816;4.422;2023-04-25T00:39:47;7.78;;;2.63;;
76152;SDS011;64897;50.816;4.422;2023-04-25T00:42:34;14.35;;;2.95;;
76152;SDS011;64897;50.816;4.422;2023-04-25T00:45:22;12.82;;;3.33;;
76152;SDS011;64897;50.816;4.422;2023-04-25T00:48:13;12.52;;;3.83;;
76152;SDS011;64897;50.816;4.422;2023-04-25T00:51:00;21.85;;;5.70;;
76152;SDS011;64897;50.816;4.422;2023-04-25T00:53:48;14.75;;;5.20;;
76152;SDS011;64897;50.816;4.422;2023-04-25T00:56:37;7.70;;;3.40;;
76152;SDS011;64897;50.816;4.422;2023-04-25T00:59:25;11.00;;;4.10;;
76152;SDS011;64897;50.816;4.422;2023-04-25T01:02:14;13.93;;;3.70;;
76152;SDS011;64897;50.816;4.422;2023-04-25T01:05:01;10.48;;;3.67;;
76152;SDS011;64897;50.816;4.422;2023-04-25T01:07:48;13.65;;;3.78;;
76152;SDS011;64897;50.816;4.422;2023-04-25T01:10:36;9.00;;;3.85;;
76152;SDS011;64897;50.816;4.422;2023-04-25T01:13:24;12.75;;;4.03;;
76152;SDS011;64897;50.816;4.422;2023-04-25T01:16:11;13.38;;;5.20;;
76152;SDS011;64897;50.816;4.422;2023-04-25T01:18:59;14.93;;;3.72;;
76152;SDS011;64897;50.816;4.422;2023-04-25T01:21:50;11.32;;;3.15;;
76152;SDS011;64897;50.816;4.422;2023-04-25T01:24:37;16.13;;;3.85;;
76152;SDS011;64897;50.816;4.422;2023-04-25T01:27:25;14.05;;;4.00;;
76152;SDS011;64897;50.816;4.422;2023-04-25T01:30:12;12.55;;;3.85;;
76152;SDS011;64897;50.816;4.422;2023-04-25T01:33:00;11.65;;;4.22;;
76152;SDS011;64897;50.816;4.422;2023-04-25T01:35:49;15.60;;;3.50;;
76152;SDS011;64897;50.816;4.422;2023-04-25T01:38:39;12.63;;;3.92;;
76152;SDS011;64897;50.816;4.422;2023-04-25T01:41:28;15.25;;;3.75;;
76152;SDS011;64897;50.816;4.422;2023-04-25T01:44:15;8.30;;;3.83;;
76152;SDS011;64897;50.816;4.422;2023-04-25T01:47:02;8.05;;;3.38;;
76152;SDS011;64897;50.816;4.422;2023-04-25T01:49:50;11.48;;;3.83;;
76152;SDS011;64897;50.816;4.422;2023-04-25T01:52:37;14.18;;;4.18;;
76152;SDS011;64897;50.816;4.422;2023-04-25T01:55:26;13.75;;;4.10;;
76152;SDS011;64897;50.816;4.422;2023-04-25T01:58:21;11.63;;;4.22;;
76152;SDS011;64897;50.816;4.422;2023-04-25T02:01:40;8.52;;;3.53;;
76152;SDS011;64897;50.816;4.422;2023-04-25T02:04:39;13.57;;;3.53;;
76152;SDS011;64897;50.816;4.422;2023-04-25T02:07:27;13.63;;;3.85;;
76152;SDS011;64897;50.816;4.422;2023-04-25T02:10:14;13.55;;;4.13;;
76152;SDS011;64897;50.816;4.422;2023-04-25T02:13:15;17.80;;;4.20;;
76152;SDS011;64897;50.816;4.422;2023-04-25T02:16:15;12.38;;;3.67;;
76152;SDS011;64897;50.816;4.422;2023-04-25T02:19:02;14.20;;;3.60;;
76152;SDS011;64897;50.816;4.422;2023-04-25T02:21:49;12.27;;;3.80;;
76152;SDS011;64897;50.816;4.422;2023-04-25T02:24:36;10.48;;;3.65;;
76152;SDS011;64897;50.816;4.422;2023-04-25T02:27:22;10.93;;;3.65;;
76152;SDS011;64897;50.816;4.422;2023-04-25T02:30:11;10.52;;;4.50;;
76152;SDS011;64897;50.816;4.422;2023-04-25T02:32:58;20.98;;;4.05;;
76152;SDS011;64897;50.816;4.422;2023-04-25T02:35:45;13.88;;;4.15;;
76152;SDS011;64897;50.816;4.422;2023-04-25T02:38:32;10.75;;;3.58;;
76152;SDS011;64897;50.816;4.422;2023-04-25T02:41:21;16.00;;;4.65;;
76152;SDS011;64897;50.816;4.422;2023-04-25T02:44:08;12.45;;;3.97;;
76152;SDS011;64897;50.816;4.422;2023-04-25T02:46:57;10.95;;;3.72;;
76152;SDS011;64897;50.816;4.422;2023-04-25T02:49:44;11.73;;;3.92;;
76152;SDS011;64897;50.816;4.422;2023-04-25T02:52:31;10.57;;;4.22;;
76152;SDS011;64897;50.816;4.422;2023-04-25T02:55:35;10.48;;;3.70;;
76152;SDS011;64897;50.816;4.422;2023-04-25T02:58:23;14.02;;;4.32;;
76152;SDS011;64897;50.816;4.422;2023-04-25T03:01:12;17.45;;;3.75;;
76152;SDS011;64897;50.816;4.422;2023-04-25T03:04:00;14.52;;;4.07;;
76152;SDS011;64897;50.816;4.422;2023-04-25T03:06:47;14.30;;;4.35;;
76152;SDS011;64897;50.816;4.422;2023-04-25T03:09:34;13.35;;;4.30;;
76152;SDS011;64897;50.816;4.422;2023-04-25T03:12:21;9.40;;;4.20;;
76152;SDS011;64897;50.816;4.422;2023-04-25T03:15:08;12.13;;;3.53;;
76152;SDS011;64897;50.816;4.422;2023-04-25T03:17:57;18.52;;;4.05;;
76152;SDS011;64897;50.816;4.422;2023-04-25T03:20:45;13.38;;;3.72;;
76152;SDS011;64897;50.816;4.422;2023-04-25T03:23:32;22.15;;;5.30;;
76152;SDS011;64897;50.816;4.422;2023-04-25T03:26:19;16.75;;;4.07;;
76152;SDS011;64897;50.816;4.422;2023-04-25T03:29:06;15.80;;;3.85;;
76152;SDS011;64897;50.816;4.422;2023-04-25T03:31:54;12.27;;;3.85;;
76152;SDS011;64897;50.816;4.422;2023-04-25T03:34:41;14.85;;;3.95;;
76152;SDS011;64897;50.816;4.422;2023-04-25T03:37:30;11.07;;;3.97;;
76152;SDS011;64897;50.816;4.422;2023-04-25T03:40:16;14.13;;;4.60;;
76152;SDS011;64897;50.816;4.422;2023-04-25T03:43:24;11.48;;;3.55;;
76152;SDS011;64897;50.816;4.422;2023-04-25T03:46:17;13.43;;;3.80;;
76152;SDS011;64897;50.816;4.422;2023-04-25T03:49:05;18.40;;;4.70;;
76152;SDS011;64897;50.816;4.422;2023-04-25T03:52:12;14.25;;;3.92;;
76152;SDS011;64897;50.816;4.422;2023-04-25T03:55:00;11.07;;;4.00;;
76152;SDS011;64897;50.816;4.422;2023-04-25T03:57:50;11.23;;;3.40;;
76152;SDS011;64897;50.816;4.422;2023-04-25T04:00:37;11.13;;;3.75;;
76152;SDS011;64897;50.816;4.422;2023-04-25T04:03:24;11.65;;;3.20;;
76152;SDS011;64897;50.816;4.422;2023-04-25T04:06:11;6.65;;;3.17;;
76152;SDS011;64897;50.816;4.422;2023-04-25T04:09:01;12.98;;;3.92;;
76152;SDS011;64897;50.816;4.422;2023-04-25T04:14:40;11.07;;;3.63;;
76152;SDS011;64897;50.816;4.422;2023-04-25T04:17:27;11.93;;;4.28;;
76152;SDS011;64897;50.816;4.422;2023-04-25T04:20:15;10.45;;;4.47;;
76152;SDS011;64897;50.816;4.422;2023-04-25T04:23:02;14.05;;;3.83;;
76152;SDS011;64897;50.816;4.422;2023-04-25T04:25:49;16.85;;;4.20;;
76152;SDS011;64897;50.816;4.422;2023-04-25T04:28:56;14.07;;;3.90;;
76152;SDS011;64897;50.816;4.422;2023-04-25T04:32:05;9.70;;;3.45;;
76152;SDS011;64897;50.816;4.422;2023-04-25T04:34:54;14.82;;;4.32;;
76152;SDS011;64897;50.816;4.422;2023-04-25T04:37:43;8.25;;;3.50;;
76152;SDS011;64897;50.816;4.422;2023-04-25T04:40:32;12.35;;;4.18;;
76152;SDS011;64897;50.816;4.422;2023-04-25T04:43:26;10.88;;;4.03;;
76152;SDS011;64897;50.816;4.422;2023-04-25T04:46:22;11.80;;;4.65;;
76152;SDS011;64897;50.816;4.422;2023-04-25T04:49:28;13.80;;;3.67;;
76152;SDS011;64897;50.816;4.422;2023-04-25T04:52:41;14.57;;;4.10;;
76152;SDS011;64897;50.816;4.422;2023-04-25T04:55:55;13.48;;;4.53;;
76152;SDS011;64897;50.816;4.422;2023-04-25T04:59:02;9.15;;;4.10;;
76152;SDS011;64897;50.816;4.422;2023-04-25T05:01:59;11.52;;;4.20;;
76152;SDS011;64897;50.816;4.422;2023-04-25T05:05:05;8.80;;;4.10;;
76152;SDS011;64897;50.816;4.422;2023-04-25T05:08:09;13.75;;;4.18;;
76152;SDS011;64897;50.816;4.422;2023-04-25T05:11:10;7.88;;;3.80;;
76152;SDS011;64897;50.816;4.422;2023-04-25T05:14:14;11.23;;;3.42;;
76152;SDS011;64897;50.816;4.422;2023-04-25T05:17:07;8.75;;;4.30;;
76152;SDS011;64897;50.816;4.422;2023-04-25T05:20:14;14.70;;;3.78;;
76152;SDS011;64897;50.816;4.422;2023-04-25T05:23:22;17.63;;;4.53;;
76152;SDS011;64897;50.816;4.422;2023-04-25T05:26:22;7.93;;;4.40;;
76152;SDS011;64897;50.816;4.422;2023-04-25T05:29:28;9.00;;;4.22;;
76152;SDS011;64897;50.816;4.422;2023-04-25T05:32:31;8.10;;;3.67;;
76152;SDS011;64897;50.816;4.422;2023-04-25T05:35:19;16.88;;;5.38;;
76152;SDS011;64897;50.816;4.422;2023-04-25T05:38:07;9.80;;;3.42;;
76152;SDS011;64897;50.816;4.422;2023-04-25T05:41:23;6.53;;;3.35;;
76152;SDS011;64897;50.816;4.422;2023-04-25T05:44:17;11.52;;;3.08;;
76152;SDS011;64897;50.816;4.422;2023-04-25T05:47:17;9.15;;;2.72;;
76152;SDS011;64897;50.816;4.422;2023-04-25T05:50:35;7.97;;;3.53;;
76152;SDS011;64897;50.816;4.422;2023-04-25T05:53:32;10.82;;;3.53;;
76152;SDS011;64897;50.816;4.422;2023-04-25T05:56:20;14.38;;;4.07;;
76152;SDS011;64897;50.816;4.422;2023-04-25T05:59:10;11.20;;;3.17;;
76152;SDS011;64897;50.816;4.422;2023-04-25T06:01:57;8.68;;;2.95;;
76152;SDS011;64897;50.816;4.422;2023-04-25T06:04:46;12.73;;;3.35;;
76152;SDS011;64897;50.816;4.422;2023-04-25T06:07:35;13.00;;;3.92;;
76152;SDS011;64897;50.816;4.422;2023-04-25T06:10:22;11.52;;;4.03;;
76152;SDS011;64897;50.816;4.422;2023-04-25T06:13:09;12.30;;;3.55;;
76152;SDS011;64897;50.816;4.422;2023-04-25T06:15:56;11.82;;;3.80;;
76152;SDS011;64897;50.816;4.422;2023-04-25T06:18:44;14.07;;;3.80;;
76152;SDS011;64897;50.816;4.422;2023-04-25T06:21:31;13.02;;;4.25;;
76152;SDS011;64897;50.816;4.422;2023-04-25T06:24:20;9.63;;;4.40;;
76152;SDS011;64897;50.816;4.422;2023-04-25T06:27:08;12.15;;;3.58;;
76152;SDS011;64897;50.816;4.422;2023-04-25T06:29:55;11.48;;;4.85;;
76152;SDS011;64897;50.816;4.422;2023-04-25T06:32:43;15.20;;;5.10;;
76152;SDS011;64897;50.816;4.422;2023-04-25T06:35:30;10.48;;;4.15;;
76152;SDS011;64897;50.816;4.422;2023-04-25T06:38:18;13.90;;;4.97;;
76152;SDS011;64897;50.816;4.422;2023-04-25T06:41:10;13.48;;;5.07;;
76152;SDS011;64897;50.816;4.422;2023-04-25T06:43:57;20.55;;;5.25;;
76152;SDS011;64897;50.816;4.422;2023-04-25T06:47:10;12.48;;;4.85;;
76152;SDS011;64897;50.816;4.422;2023-04-25T06:50:00;8.93;;;4.85;;
76152;SDS011;64897;50.816;4.422;2023-04-25T06:52:48;10.88;;;3.95;;
76152;SDS011;64897;50.816;4.422;2023-04-25T06:55:37;8.63;;;3.67;;
76152;SDS011;64897;50.816;4.422;2023-04-25T06:58:36;14.75;;;3.67;;
76152;SDS011;64897;50.816;4.422;2023-04-25T07:01:30;15.35;;;3.47;;
76152;SDS011;64897;50.816;4.422;2023-04-25T07:04:19;11.98;;;3.60;;
76152;SDS011;64897;50.816;4.422;2023-04-25T07:07:24;7.93;;;3.50;;
76152;SDS011;64897;50.816;4.422;2023-04-25T07:10:15;8.98;;;3.20;;
76152;SDS011;64897;50.816;4.422;2023-04-25T07:13:02;9.35;;;3.38;;
76152;SDS011;64897;50.816;4.422;2023-04-25T07:15:50;13.13;;;4.28;;
76152;SDS011;64897;50.816;4.422;2023-04-25T07:18:39;9.30;;;3.25;;
76152;SDS011;64897;50.816;4.422;2023-04-25T07:21:28;18.00;;;4.22;;
76152;SDS011;64897;50.816;4.422;2023-04-25T07:24:19;6.57;;;2.67;;
76152;SDS011;64897;50.816;4.422;2023-04-25T07:27:08;10.25;;;2.75;;
76152;SDS011;64897;50.816;4.422;2023-04-25T07:30:14;11.05;;;3.03;;
76152;SDS011;64897;50.816;4.422;2023-04-25T07:33:03;8.25;;;2.53;;
76152;SDS011;64897;50.816;4.422;2023-04-25T07:35:50;10.13;;;2.58;;
76152;SDS011;64897;50.816;4.422;2023-04-25T07:38:38;5.22;;;2.17;;
76152;SDS011;64897;50.816;4.422;2023-04-25T07:41:26;8.75;;;3.28;;
76152;SDS011;64897;50.816;4.422;2023-04-25T07:44:13;9.52;;;3.95;;
76152;SDS011;64897;50.816;4.422;2023-04-25T07:46:59;9.02;;;2.67;;
76152;SDS011;64897;50.816;4.422;2023-04-25T07:49:48;9.48;;;3.15;;
76152;SDS011;64897;50.816;4.422;2023-04-25T07:52:35;6.45;;;2.47;;
76152;SDS011;64897;50.816;4.422;2023-04-25T07:55:32;6.88;;;2.90;;
76152;SDS011;64897;50.816;4.422;2023-04-25T07:58:26;8.57;;;2.85;;
76152;SDS011;64897;50.816;4.422;2023-04-25T08:01:17;10.85;;;3.13;;
76152;SDS011;64897;50.816;4.422;2023-04-25T08:04:12;7.13;;;2.47;;
76152;SDS011;64897;50.816;4.422;2023-04-25T08:07:11;10.15;;;2.78;;
76152;SDS011;64897;50.816;4.422;2023-04-25T08:10:08;7.35;;;3.22;;
76152;SDS011;64897;50.816;4.422;2023-04-25T08:12:55;12.57;;;3.13;;
76152;SDS011;64897;50.816;4.422;2023-04-25T08:15:42;7.50;;;3.35;;
76152;SDS011;64897;50.816;4.422;2023-04-25T08:18:30;13.52;;;3.03;;
76152;SDS011;64897;50.816;4.422;2023-04-25T08:21:17;13.57;;;2.60;;
76152;SDS011;64897;50.816;4.422;2023-04-25T08:24:06;6.60;;;3.25;;
76152;SDS011;64897;50.816;4.422;2023-04-25T08:26:56;8.25;;;2.88;;
76152;SDS011;64897;50.816;4.422;2023-04-25T08:29:46;5.70;;;2.90;;
76152;SDS011;64897;50.816;4.422;2023-04-25T08:32:33;11.20;;;3.10;;
76152;SDS011;64897;50.816;4.422;2023-04-25T08:35:43;8.13;;;2.67;;
76152;SDS011;64897;50.816;4.422;2023-04-25T08:38:32;11.50;;;2.70;;
76152;SDS011;64897;50.816;4.422;2023-04-25T08:41:23;6.47;;;2.42;;
76152;SDS011;64897;50.816;4.422;2023-04-25T08:46:57;11.05;;;2.40;;
76152;SDS011;64897;50.816;4.422;2023-04-25T08:49:49;8.23;;;2.58;;
76152;SDS011;64897;50.816;4.422;2023-04-25T08:52:43;7.47;;;2.25;;
76152;SDS011;64897;50.816;4.422;2023-04-25T08:55:30;5.70;;;2.65;;
76152;SDS011;64897;50.816;4.422;2023-04-25T08:58:21;9.90;;;2.97;;
76152;SDS011;64897;50.816;4.422;2023-04-25T09:01:08;9.52;;;2.83;;
76152;SDS011;64897;50.816;4.422;2023-04-25T09:04:03;10.98;;;2.40;;
76152;SDS011;64897;50.816;4.422;2023-04-25T09:06:52;7.07;;;2.20;;
76152;SDS011;64897;50.816;4.422;2023-04-25T09:09:39;8.57;;;2.45;;
76152;SDS011;64897;50.816;4.422;2023-04-25T09:12:26;10.57;;;2.78;;
76152;SDS011;64897;50.816;4.422;2023-04-25T09:15:16;6.03;;;2.40;;
76152;SDS011;64897;50.816;4.422;2023-04-25T09:18:24;11.85;;;2.92;;
76152;SDS011;64897;50.816;4.422;2023-04-25T09:21:12;5.07;;;2.30;;
76152;SDS011;64897;50.816;4.422;2023-04-25T09:24:02;10.50;;;2.65;;
76152;SDS011;64897;50.816;4.422;2023-04-25T09:26:50;8.25;;;1.83;;
76152;SDS011;64897;50.816;4.422;2023-04-25T09:29:39;9.73;;;2.30;;
76152;SDS011;64897;50.816;4.422;2023-04-25T09:32:30;6.95;;;2.47;;
76152;SDS011;64897;50.816;4.422;2023-04-25T09:35:23;8.23;;;2.33;;
76152;SDS011;64897;50.816;4.422;2023-04-25T09:38:13;9.40;;;2.75;;
76152;SDS011;64897;50.816;4.422;2023-04-25T09:41:23;9.45;;;2.30;;
76152;SDS011;64897;50.816;4.422;2023-04-25T09:44:13;5.00;;;2.25;;
76152;SDS011;64897;50.816;4.422;2023-04-25T09:47:01;5.93;;;2.03;;
76152;SDS011;64897;50.816;4.422;2023-04-25T09:49:51;4.40;;;2.20;;
76152;SDS011;64897;50.816;4.422;2023-04-25T09:52:40;6.25;;;2.00;;
76152;SDS011;64897;50.816;4.422;2023-04-25T09:58:24;3.97;;;1.35;;
76152;SDS011;64897;50.816;4.422;2023-04-25T10:01:12;6.85;;;2.42;;
76152;SDS011;64897;50.816;4.422;2023-04-25T10:04:12;6.20;;;2.40;;
76152;SDS011;64897;50.816;4.422;2023-04-25T10:07:11;4.97;;;2.45;;
76152;SDS011;64897;50.816;4.422;2023-04-25T10:10:03;6.50;;;1.85;;
76152;SDS011;64897;50.816;4.422;2023-04-25T10:12:51;7.63;;;2.13;;
76152;SDS011;64897;50.816;4.422;2023-04-25T10:15:40;4.78;;;1.92;;
76152;SDS011;64897;50.816;4.422;2023-04-25T10:18:29;7.18;;;1.85;;
76152;SDS011;64897;50.816;4.422;2023-04-25T10:21:17;7.05;;;2.25;;
76152;SDS011;64897;50.816;4.422;2023-04-25T10:24:06;5.60;;;2.38;;
76152;SDS011;64897;50.816;4.422;2023-04-25T10:26:54;4.93;;;1.95;;
76152;SDS011;64897;50.816;4.422;2023-04-25T10:32:30;4.40;;;1.70;;
76152;SDS011;64897;50.816;4.422;2023-04-25T10:35:18;4.93;;;1.90;;
76152;SDS011;64897;50.816;4.422;2023-04-25T10:38:10;5.38;;;1.90;;
76152;SDS011;64897;50.816;4.422;2023-04-25T10:41:04;6.18;;;2.20;;
76152;SDS011;64897;50.816;4.422;2023-04-25T10:43:58;6.93;;;1.77;;
76152;SDS011;64897;50.816;4.422;2023-04-25T10:46:46;10.13;;;2.60;;
76152;SDS011;64897;50.816;4.422;2023-04-25T10:49:34;18.05;;;6.95;;
76152;SDS011;64897;50.816;4.422;2023-04-25T10:52:25;4.28;;;1.83;;
76152;SDS011;64897;50.816;4.422;2023-04-25T10:55:14;6.88;;;1.95;;
76152;SDS011;64897;50.816;4.422;2023-04-25T10:58:03;3.33;;;1.30;;
76152;SDS011;64897;50.816;4.422;2023-04-25T11:00:51;4.57;;;1.70;;
76152;SDS011;64897;50.816;4.422;2023-04-25T11:03:38;7.53;;;1.70;;
76152;SDS011;64897;50.816;4.422;2023-04-25T11:06:29;7.60;;;2.53;;
76152;SDS011;64897;50.816;4.422;2023-04-25T11:09:24;6.50;;;1.95;;
76152;SDS011;64897;50.816;4.422;2023-04-25T11:12:12;4.20;;;1.50;;
76152;SDS011;64897;50.816;4.422;2023-04-25T11:15:02;7.82;;;1.95;;
76152;SDS011;64897;50.816;4.422;2023-04-25T11:17:51;7.32;;;1.90;;
76152;SDS011;64897;50.816;4.422;2023-04-25T11:20:39;3.83;;;1.80;;
76152;SDS011;64897;50.816;4.422;2023-04-25T11:23:29;5.15;;;1.85;;
76152;SDS011;64897;50.816;4.422;2023-04-25T11:26:17;5.53;;;1.73;;
76152;SDS011;64897;50.816;4.422;2023-04-25T11:29:05;5.72;;;2.00;;
76152;SDS011;64897;50.816;4.422;2023-04-25T11:31:54;7.10;;;1.77;;
76152;SDS011;64897;50.816;4.422;2023-04-25T11:34:43;3.63;;;1.38;;
76152;SDS011;64897;50.816;4.422;2023-04-25T11:37:31;5.40;;;1.75;;
76152;SDS011;64897;50.816;4.422;2023-04-25T11:40:19;4.72;;;1.75;;
76152;SDS011;64897;50.816;4.422;2023-04-25T11:43:06;6.85;;;1.92;;
76152;SDS011;64897;50.816;4.422;2023-04-25T11:45:54;13.48;;;1.90;;
76152;SDS011;64897;50.816;4.422;2023-04-25T11:48:43;5.20;;;1.50;;
76152;SDS011;64897;50.816;4.422;2023-04-25T11:51:37;2.97;;;1.40;;
76152;SDS011;64897;50.816;4.422;2023-04-25T11:54:25;8.45;;;2.05;;
76152;SDS011;64897;50.816;4.422;2023-04-25T11:57:13;6.03;;;1.60;;
76152;SDS011;64897;50.816;4.422;2023-04-25T12:00:08;3.78;;;1.70;;
76152;SDS011;64897;50.816;4.422;2023-04-25T12:02:58;5.53;;;2.05;;
76152;SDS011;64897;50.816;4.422;2023-04-25T12:05:46;4.97;;;2.05;;
76152;SDS011;64897;50.816;4.422;2023-04-25T12:08:33;5.18;;;1.70;;
76152;SDS011;64897;50.816;4.422;2023-04-25T12:11:20;4.32;;;2.22;;
76152;SDS011;64897;50.816;4.422;2023-04-25T12:14:07;4.78;;;1.75;;
76152;SDS011;64897;50.816;4.422;2023-04-25T12:16:57;5.28;;;1.92;;
76152;SDS011;64897;50.816;4.422;2023-04-25T12:19:46;4.80;;;1.60;;
76152;SDS011;64897;50.816;4.422;2023-04-25T12:22:35;3.97;;;1.55;;
76152;SDS011;64897;50.816;4.422;2023-04-25T12:25:35;5.70;;;1.65;;
76152;SDS011;64897;50.816;4.422;2023-04-25T12:28:23;4.15;;;1.50;;
76152;SDS011;64897;50.816;4.422;2023-04-25T12:31:12;6.18;;;1.65;;
76152;SDS011;64897;50.816;4.422;2023-04-25T12:34:00;3.38;;;1.40;;
76152;SDS011;64897;50.816;4.422;2023-04-25T12:36:48;3.38;;;1.60;;
76152;SDS011;64897;50.816;4.422;2023-04-25T12:39:37;3.72;;;1.70;;
76152;SDS011;64897;50.816;4.422;2023-04-25T12:42:24;7.32;;;1.42;;
76152;SDS011;64897;50.816;4.422;2023-04-25T12:45:11;5.63;;;1.73;;
76152;SDS011;64897;50.816;4.422;2023-04-25T12:47:58;2.60;;;1.58;;
76152;SDS011;64897;50.816;4.422;2023-04-25T12:50:45;5.53;;;1.50;;
76152;SDS011;64897;50.816;4.422;2023-04-25T12:53:34;4.32;;;1.45;;
76152;SDS011;64897;50.816;4.422;2023-04-25T12:56:23;4.28;;;1.58;;
76152;SDS011;64897;50.816;4.422;2023-04-25T12:59:10;7.32;;;1.55;;
76152;SDS011;64897;50.816;4.422;2023-04-25T13:01:57;3.75;;;1.45;;
76152;SDS011;64897;50.816;4.422;2023-04-25T13:04:45;2.75;;;1.52;;
76152;SDS011;64897;50.816;4.422;2023-04-25T13:07:32;3.08;;;1.60;;
76152;SDS011;64897;50.816;4.422;2023-04-25T13:10:20;5.43;;;1.60;;
76152;SDS011;64897;50.816;4.422;2023-04-25T13:13:08;3.25;;;1.60;;
76152;SDS011;64897;50.816;4.422;2023-04-25T13:15:55;3.65;;;1.55;;
76152;SDS011;64897;50.816;4.422;2023-04-25T13:18:42;7.38;;;2.08;;
76152;SDS011;64897;50.816;4.422;2023-04-25T13:21:29;5.93;;;1.60;;
76152;SDS011;64897;50.816;4.422;2023-04-25T13:24:17;7.20;;;1.77;;
76152;SDS011;64897;50.816;4.422;2023-04-25T13:27:04;2.95;;;1.23;;
76152;SDS011;64897;50.816;4.422;2023-04-25T13:29:52;3.55;;;1.40;;
76152;SDS011;64897;50.816;4.422;2023-04-25T13:32:39;2.95;;;1.50;;
76152;SDS011;64897;50.816;4.422;2023-04-25T13:35:27;4.63;;;1.58;;
76152;SDS011;64897;50.816;4.422;2023-04-25T13:38:15;4.43;;;1.75;;
76152;SDS011;64897;50.816;4.422;2023-04-25T13:41:02;3.20;;;1.48;;
76152;SDS011;64897;50.816;4.422;2023-04-25T13:43:51;4.45;;;1.55;;
76152;SDS011;64897;50.816;4.422;2023-04-25T13:46:39;4.38;;;1.52;;
76152;SDS011;64897;50.816;4.422;2023-04-25T13:49:26;4.65;;;1.55;;
76152;SDS011;64897;50.816;4.422;2023-04-25T13:52:13;5.13;;;2.55;;
76152;SDS011;64897;50.816;4.422;2023-04-25T13:54:59;4.80;;;1.70;;
76152;SDS011;64897;50.816;4.422;2023-04-25T13:57:49;3.55;;;1.35;;
76152;SDS011;64897;50.816;4.422;2023-04-25T14:00:37;6.53;;;1.63;;
76152;SDS011;64897;50.816;4.422;2023-04-25T14:03:28;5.90;;;2.17;;
76152;SDS011;64897;50.816;4.422;2023-04-25T14:06:16;4.80;;;1.67;;
76152;SDS011;64897;50.816;4.422;2023-04-25T14:09:07;4.38;;;1.48;;
76152;SDS011;64897;50.816;4.422;2023-04-25T14:11:55;5.82;;;1.88;;
76152;SDS011;64897;50.816;4.422;2023-04-25T14:14:42;6.07;;;1.75;;
76152;SDS011;64897;50.816;4.422;2023-04-25T14:17:29;8.45;;;2.08;;
76152;SDS011;64897;50.816;4.422;2023-04-25T14:20:18;8.13;;;1.63;;
76152;SDS011;64897;50.816;4.422;2023-04-25T14:23:06;6.03;;;1.40;;
76152;SDS011;64897;50.816;4.422;2023-04-25T14:25:53;5.90;;;1.73;;
76152;SDS011;64897;50.816;4.422;2023-04-25T14:28:40;7.32;;;1.95;;
76152;SDS011;64897;50.816;4.422;2023-04-25T14:31:27;6.40;;;1.83;;
76152;SDS011;64897;50.816;4.422;2023-04-25T14:34:14;2.63;;;1.40;;
76152;SDS011;64897;50.816;4.422;2023-04-25T14:37:03;3.90;;;1.80;;
76152;SDS011;64897;50.816;4.422;2023-04-25T14:39:50;5.47;;;1.70;;
76152;SDS011;64897;50.816;4.422;2023-04-25T14:42:38;5.13;;;1.42;;
76152;SDS011;64897;50.816;4.422;2023-04-25T14:45:25;3.88;;;1.80;;
76152;SDS011;64897;50.816;4.422;2023-04-25T14:48:12;9.70;;;2.03;;
76152;SDS011;64897;50.816;4.422;2023-04-25T14:50:59;4.35;;;1.42;;
76152;SDS011;64897;50.816;4.422;2023-04-25T14:53:48;5.22;;;1.98;;
76152;SDS011;64897;50.816;4.422;2023-04-25T14:56:37;3.70;;;1.80;;
76152;SDS011;64897;50.816;4.422;2023-04-25T14:59:24;3.08;;;1.65;;
76152;SDS011;64897;50.816;4.422;2023-04-25T15:02:12;3.90;;;1.42;;
76152;SDS011;64897;50.816;4.422;2023-04-25T15:05:00;4.22;;;1.42;;
76152;SDS011;64897;50.816;4.422;2023-04-25T15:07:47;8.18;;;2.22;;
76152;SDS011;64897;50.816;4.422;2023-04-25T15:10:36;2.80;;;1.50;;
76152;SDS011;64897;50.816;4.422;2023-04-25T15:13:23;4.35;;;1.70;;
76152;SDS011;64897;50.816;4.422;2023-04-25T15:16:11;4.55;;;1.40;;
76152;SDS011;64897;50.816;4.422;2023-04-25T15:18:57;3.88;;;1.77;;
76152;SDS011;64897;50.816;4.422;2023-04-25T15:21:48;3.40;;;1.33;;
76152;SDS011;64897;50.816;4.422;2023-04-25T15:24:35;4.38;;;1.33;;
76152;SDS011;64897;50.816;4.422;2023-04-25T15:27:23;3.20;;;1.40;;
76152;SDS011;64897;50.816;4.422;2023-04-25T15:30:12;9.38;;;3.08;;
76152;SDS011;64897;50.816;4.422;2023-04-25T15:33:00;3.63;;;1.52;;
76152;SDS011;64897;50.816;4.422;2023-04-25T15:35:47;7.55;;;1.38;;
76152;SDS011;64897;50.816;4.422;2023-04-25T15:38:34;4.07;;;1.77;;
76152;SDS011;64897;50.816;4.422;2023-04-25T15:41:21;3.15;;;1.67;;
76152;SDS011;64897;50.816;4.422;2023-04-25T15:44:10;6.25;;;1.38;;
76152;SDS011;64897;50.816;4.422;2023-04-25T15:46:57;4.68;;;2.00;;
76152;SDS011;64897;50.816;4.422;2023-04-25T15:49:44;4.88;;;1.48;;
76152;SDS011;64897;50.816;4.422;2023-04-25T15:52:30;3.53;;;1.90;;
76152;SDS011;64897;50.816;4.422;2023-04-25T15:55:18;7.80;;;1.77;;
76152;SDS011;64897;50.816;4.422;2023-04-25T15:58:07;4.57;;;1.80;;
76152;SDS011;64897;50.816;4.422;2023-04-25T16:00:55;5.13;;;2.15;;
76152;SDS011;64897;50.816;4.422;2023-04-25T16:03:42;5.13;;;1.80;;
76152;SDS011;64897;50.816;4.422;2023-04-25T16:06:29;5.03;;;1.48;;
76152;SDS011;64897;50.816;4.422;2023-04-25T16:09:16;5.40;;;1.55;;
76152;SDS011;64897;50.816;4.422;2023-04-25T16:12:03;4.05;;;1.80;;
76152;SDS011;64897;50.816;4.422;2023-04-25T16:14:51;2.75;;;1.55;;
76152;SDS011;64897;50.816;4.422;2023-04-25T16:17:40;1.80;;;1.02;;
76152;SDS011;64897;50.816;4.422;2023-04-25T16:20:27;4.13;;;1.48;;
76152;SDS011;64897;50.816;4.422;2023-04-25T16:23:15;3.95;;;1.42;;
76152;SDS011;64897;50.816;4.422;2023-04-25T16:26:02;3.88;;;1.75;;
76152;SDS011;64897;50.816;4.422;2023-04-25T16:28:49;3.53;;;1.40;;
76152;SDS011;64897;50.816;4.422;2023-04-25T16:31:36;3.22;;;1.20;;
76152;SDS011;64897;50.816;4.422;2023-04-25T16:34:25;5.30;;;1.85;;
76152;SDS011;64897;50.816;4.422;2023-04-25T16:37:12;6.13;;;1.67;;
76152;SDS011;64897;50.816;4.422;2023-04-25T16:39:59;2.95;;;1.25;;
76152;SDS011;64897;50.816;4.422;2023-04-25T16:42:48;3.60;;;1.65;;
76152;SDS011;64897;50.816;4.422;2023-04-25T16:45:35;5.68;;;1.98;;
76152;SDS011;64897;50.816;4.422;2023-04-25T16:48:22;7.57;;;1.67;;
76152;SDS011;64897;50.816;4.422;2023-04-25T16:51:11;6.25;;;2.22;;
76152;SDS011;64897;50.816;4.422;2023-04-25T16:53:58;11.27;;;1.80;;
76152;SDS011;64897;50.816;4.422;2023-04-25T16:56:45;4.57;;;1.50;;
76152;SDS011;64897;50.816;4.422;2023-04-25T16:59:32;2.58;;;1.55;;
76152;SDS011;64897;50.816;4.422;2023-04-25T17:02:19;4.28;;;1.38;;
76152;SDS011;64897;50.816;4.422;2023-04-25T17:05:07;5.72;;;1.48;;
76152;SDS011;64897;50.816;4.422;2023-04-25T17:07:55;4.78;;;1.45;;
76152;SDS011;64897;50.816;4.422;2023-04-25T17:10:43;7.20;;;1.90;;